Time;durP1;ratioP1;P1;durP2;ratioP2;P2;SDS_P1;SDS_P2;PMS_P1;PMS_P2;Temp;Humidity;BMP_temperature;BMP_pressure;BME280_temperature;BME280_humidity;BME280_pressure;Samples;Min_cycle;Max_cycle;Signal;HPM_P1;HPM_P2
2022/08/09 00:01:55;;;;;;;3.93;2.37;;;;;;;13.29;100.00;102320.03;5046419;28;20028;-74
2022/08/09 00:04:21;;;;;;;4.27;2.67;;;;;;;13.24;100.00;102307.00;5046465;28;20043;-74
2022/08/09 00:06:47;;;;;;;8.27;2.40;;;;;;;13.26;100.00;102312.25;5045140;28;20547;-73
2022/08/09 00:09:14;;;;;;;3.28;2.30;;;;;;;13.20;100.00;102308.28;5046059;28;20074;-73
2022/08/09 00:11:39;;;;;;;2.85;2.30;;;;;;;13.13;100.00;102312.50;5044826;28;20025;-76
2022/08/09 00:14:05;;;;;;;5.67;2.93;;;;;;;13.13;100.00;102319.72;5044812;28;20029;-73
2022/08/09 00:16:31;;;;;;;2.95;2.40;;;;;;;13.11;100.00;102319.88;5036845;28;20013;-72
2022/08/09 00:18:57;;;;;;;3.80;2.53;;;;;;;13.10;100.00;102321.69;5036819;28;20036;-73
2022/08/09 00:21:22;;;;;;;4.15;2.53;;;;;;;12.99;100.00;102313.78;5037409;28;20107;-73
2022/08/09 00:23:48;;;;;;;6.60;2.77;;;;;;;13.08;100.00;102307.56;5044764;28;20032;-73
2022/08/09 00:26:13;;;;;;;5.27;2.90;;;;;;;13.04;100.00;102314.22;5045882;28;20028;-73
2022/08/09 00:28:39;;;;;;;4.67;3.53;;;;;;;12.96;100.00;102313.22;5036527;28;20283;-73
2022/08/09 00:31:05;;;;;;;3.03;2.28;;;;;;;12.89;100.00;102310.25;5038082;28;20036;-76
2022/08/09 00:33:30;;;;;;;6.15;2.85;;;;;;;12.79;100.00;102304.88;5045661;28;20029;-74
2022/08/09 00:35:58;;;;;;;4.43;2.40;;;;;;;12.76;100.00;102306.97;5045720;28;20025;-74
2022/08/09 00:38:24;;;;;;;6.72;2.83;;;;;;;12.71;100.00;102303.88;5044785;28;20032;-72
2022/08/09 00:40:50;;;;;;;3.80;2.50;;;;;;;12.67;100.00;102301.47;5044229;28;20029;-74
2022/08/09 00:43:15;;;;;;;6.63;2.90;;;;;;;12.65;100.00;102305.28;5044313;28;20448;-73
2022/08/09 00:45:40;;;;;;;6.47;3.00;;;;;;;12.60;100.00;102308.38;5045791;28;20029;-73
2022/08/09 00:48:06;;;;;;;5.60;2.63;;;;;;;12.54;100.00;102308.91;5044679;28;20620;-73
2022/08/09 00:50:32;;;;;;;4.17;2.30;;;;;;;12.53;100.00;102304.56;5019285;28;20032;-72
2022/08/09 00:52:58;;;;;;;4.47;2.88;;;;;;;12.53;100.00;102304.56;5044343;28;20029;-73
2022/08/09 00:55:23;;;;;;;6.43;2.70;;;;;;;12.45;100.00;102305.25;5045747;28;20039;-74
2022/08/09 00:57:49;;;;;;;4.60;2.40;;;;;;;12.43;100.00;102301.88;5045634;28;20025;-73
2022/08/09 01:00:15;;;;;;;3.73;2.60;;;;;;;12.42;100.00;102294.78;5043997;28;20120;-75
2022/08/09 01:02:50;;;;;;;3.45;2.78;;;;;;;12.41;100.00;102298.47;5045502;28;20031;-73
2022/08/09 01:05:36;;;;;;;5.28;3.05;;;;;;;12.40;100.00;102301.28;5035961;28;20445;-72
2022/08/09 01:08:26;;;;;;;4.28;2.80;;;;;;;12.34;100.00;102296.44;5044392;28;20513;-73
2022/08/09 01:11:08;;;;;;;3.72;2.40;;;;;;;12.34;100.00;102302.69;5039867;28;20025;-73
2022/08/09 01:13:45;;;;;;;5.90;2.83;;;;;;;12.40;100.00;102301.28;5038239;28;20021;-73
2022/08/09 01:16:12;;;;;;;5.38;3.33;;;;;;;12.46;100.00;102306.94;5045609;28;20053;-73
2022/08/09 01:18:44;;;;;;;4.20;3.00;;;;;;;12.48;100.00;102309.50;5045473;28;20060;-73
2022/08/09 01:21:26;;;;;;;5.70;3.33;;;;;;;12.39;100.00;102316.50;5044988;28;20028;-75
2022/08/09 01:23:59;;;;;;;9.95;3.05;;;;;;;12.25;100.00;102315.03;5045160;28;20047;-73
2022/08/09 01:26:43;;;;;;;3.30;2.88;;;;;;;12.13;100.00;102305.41;5045378;28;20481;-73
2022/08/09 01:29:12;;;;;;;4.70;2.50;;;;;;;12.09;100.00;102314.69;5045108;28;20079;-74
2022/08/09 01:31:42;;;;;;;4.22;2.42;;;;;;;12.07;100.00;102318.50;5044155;28;20405;-73
2022/08/09 01:34:11;;;;;;;4.18;2.70;;;;;;;12.03;100.00;102312.53;5045207;28;20195;-72
2022/08/09 01:36:39;;;;;;;4.55;2.17;;;;;;;12.06;100.00;102314.97;5045328;28;20417;-74
2022/08/09 01:39:04;;;;;;;3.92;2.72;;;;;;;12.00;100.00;102310.97;5041489;28;20037;-76
2022/08/09 01:41:35;;;;;;;8.33;3.57;;;;;;;11.98;100.00;102317.44;5042897;28;20021;-74
2022/08/09 01:44:03;;;;;;;3.85;2.83;;;;;;;11.94;100.00;102316.00;5043294;28;20055;-72
2022/08/09 01:46:38;;;;;;;2.53;2.33;;;;;;;11.91;100.00;102317.13;5038243;28;20488;-74
2022/08/09 01:49:08;;;;;;;4.53;2.83;;;;;;;11.88;100.00;102314.72;5045564;28;20279;-75
2022/08/09 01:51:35;;;;;;;4.90;2.65;;;;;;;11.89;100.00;102316.41;5044677;28;20036;-74
2022/08/09 01:54:02;;;;;;;3.88;2.63;;;;;;;11.90;100.00;102317.28;5046949;28;20020;-73
2022/08/09 01:56:32;;;;;;;4.20;2.92;;;;;;;11.91;100.00;102319.81;5048083;28;20158;-73
2022/08/09 01:59:02;;;;;;;5.68;3.33;;;;;;;11.99;100.00;102324.53;5046869;28;20096;-72
2022/08/09 02:01:29;;;;;;;4.82;3.03;;;;;;;11.93;100.00;102331.22;5047191;28;20040;-73
2022/08/09 02:03:56;;;;;;;4.93;3.28;;;;;;;11.86;100.00;102327.38;5048025;28;20028;-76
2022/08/09 02:09:09;;;;;;;6.68;3.83;;;;;;;11.87;100.00;102328.19;5046645;28;20040;-73
2022/08/09 02:11:35;;;;;;;7.00;3.50;;;;;;;11.93;100.00;102336.59;5046206;28;20021;-74
2022/08/09 02:14:05;;;;;;;7.83;3.53;;;;;;;11.94;100.00;102337.44;5047679;28;20036;-74
2022/08/09 02:16:34;;;;;;;5.13;3.15;;;;;;;11.98;100.00;102338.88;5046855;28;20033;-75
2022/08/09 02:19:00;;;;;;;4.50;3.05;;;;;;;11.89;100.00;102336.97;5045570;28;20021;-75
2022/08/09 02:21:27;;;;;;;4.00;2.88;;;;;;;11.82;100.00;102337.50;5045128;28;20033;-74
2022/08/09 02:23:56;;;;;;;5.82;3.22;;;;;;;11.80;100.00;102339.44;5045827;28;20021;-74
2022/08/09 02:26:23;;;;;;;6.70;3.35;;;;;;;11.81;100.00;102341.13;5044796;28;20033;-73
2022/08/09 02:28:52;;;;;;;3.13;2.83;;;;;;;11.76;100.00;102338.00;5044467;28;20067;-73
2022/08/09 02:31:22;;;;;;;7.82;3.05;;;;;;;11.75;100.00;102344.34;5042967;28;20120;-73
2022/08/09 02:33:51;;;;;;;5.72;3.15;;;;;;;11.69;100.00;102339.53;5044287;28;20052;-73
2022/08/09 02:36:30;;;;;;;3.90;3.20;;;;;;;11.67;100.00;102336.13;5043530;28;20108;-73
2022/08/09 02:38:59;;;;;;;6.75;3.92;;;;;;;11.75;100.00;102343.47;5045676;28;20033;-73
2022/08/09 02:41:35;;;;;;;5.88;3.20;;;;;;;11.77;100.00;102347.72;5046105;28;20037;-75
2022/08/09 02:44:05;;;;;;;3.92;3.05;;;;;;;11.66;100.00;102344.25;5047319;28;20047;-73
2022/08/09 02:46:33;;;;;;;6.25;3.30;;;;;;;11.66;100.00;102342.47;5039916;28;20029;-73
2022/08/09 02:49:04;;;;;;;4.43;3.00;;;;;;;11.64;100.00;102341.75;5046944;28;20386;-73
2022/08/09 02:51:33;;;;;;;5.63;3.50;;;;;;;11.63;100.00;102345.38;5038339;28;20489;-76
2022/08/09 02:54:01;;;;;;;4.10;3.15;;;;;;;11.59;100.00;102352.00;5045473;28;20021;-73
2022/08/09 02:56:30;;;;;;;5.25;3.38;;;;;;;11.59;100.00;102343.97;5046113;28;20751;-73
2022/08/09 02:58:58;;;;;;;6.25;3.28;;;;;;;11.59;100.00;102342.13;5045186;28;20017;-73
2022/08/09 03:01:24;;;;;;;5.85;3.33;;;;;;;11.58;100.00;102344.94;5045959;28;20044;-75
2022/08/09 03:03:50;;;;;;;3.90;3.10;;;;;;;11.56;100.00;102338.84;5046012;28;20114;-74
2022/08/09 03:06:17;;;;;;;6.38;3.35;;;;;;;11.56;100.00;102344.19;5047124;28;20091;-73
2022/08/09 03:08:44;;;;;;;8.35;3.50;;;;;;;11.63;100.00;102348.06;5046389;28;20033;-73
2022/08/09 03:11:14;;;;;;;5.93;3.63;;;;;;;11.53;100.00;102344.47;5044979;28;20033;-73
2022/08/09 03:13:40;;;;;;;7.75;3.92;;;;;;;11.41;100.00;102351.72;5045571;28;20067;-77
2022/08/09 03:16:07;;;;;;;4.28;3.35;;;;;;;11.36;100.00;102351.25;5046631;28;20052;-73
2022/08/09 03:18:34;;;;;;;3.78;2.92;;;;;;;11.31;100.00;102348.97;5046676;28;20024;-74
2022/08/09 03:21:01;;;;;;;8.18;3.70;;;;;;;11.34;100.00;102346.03;5044668;28;20036;-74
2022/08/09 03:23:28;;;;;;;6.55;3.15;;;;;;;11.33;100.00;102348.81;5046098;28;20028;-73
2022/08/09 03:25:54;;;;;;;5.57;3.10;;;;;;;11.32;100.00;102347.97;5045232;28;20044;-72
2022/08/09 03:28:21;;;;;;;7.47;3.85;;;;;;;11.37;100.00;102351.09;5046545;28;20108;-73
2022/08/09 03:30:48;;;;;;;6.32;3.40;;;;;;;11.31;100.00;102348.13;5044417;28;20043;-72
2022/08/09 03:33:15;;;;;;;5.03;3.67;;;;;;;11.31;100.00;102351.63;5045026;28;20509;-74
2022/08/09 03:35:41;;;;;;;5.82;3.60;;;;;;;11.28;100.00;102346.53;5046117;28;20032;-74
2022/08/09 03:38:06;;;;;;;6.77;3.67;;;;;;;11.35;100.00;102344.19;5044666;28;20025;-73
2022/08/09 03:40:31;;;;;;;5.50;3.83;;;;;;;11.29;100.00;102350.06;5044839;28;20569;-73
2022/08/09 03:42:57;;;;;;;7.93;4.40;;;;;;;11.29;100.00;102350.06;5044660;28;20058;-73
2022/08/09 03:45:22;;;;;;;8.27;4.97;;;;;;;11.19;100.00;102339.25;5045649;28;20115;-73
2022/08/09 03:47:48;;;;;;;7.47;5.10;;;;;;;11.18;100.00;102343.78;5044717;28;20861;-73
2022/08/09 03:50:14;;;;;;;6.27;4.27;;;;;;;11.17;100.00;102344.75;5044666;28;20029;-74
2022/08/09 03:52:41;;;;;;;6.13;4.32;;;;;;;11.21;100.00;102345.34;5055101;22;20033;-88
2022/08/09 03:55:09;;;;;;;6.07;3.70;;;;;;;11.17;100.00;102349.25;5025450;28;20053;-87
2022/08/09 03:57:35;;;;;;;7.95;3.72;;;;;;;11.19;100.00;102339.25;5020625;28;20029;-88
2022/08/09 04:00:00;;;;;;;8.60;4.05;;;;;;;11.23;100.00;102346.06;5028945;28;20028;-88
2022/08/09 04:02:29;;;;;;;10.53;3.80;;;;;;;11.26;100.00;102340.47;5021768;28;20036;-88
2022/08/09 04:04:57;;;;;;;7.80;4.22;;;;;;;11.24;100.00;102339.75;5028102;28;20033;-87
2022/08/09 04:07:22;;;;;;;10.02;5.05;;;;;;;11.35;100.00;102333.50;5005917;28;20025;-88
2022/08/09 04:09:48;;;;;;;10.80;4.60;;;;;;;11.35;100.00;102347.69;5037975;28;20033;-88
2022/08/09 04:12:14;;;;;;;8.57;5.07;;;;;;;11.39;100.00;102348.31;5007067;28;20018;-89
2022/08/09 04:14:41;;;;;;;11.80;5.30;;;;;;;11.44;100.00;102356.78;5037513;28;20038;-88
2022/08/09 04:17:07;;;;;;;9.45;4.28;;;;;;;11.50;100.00;102353.59;5023251;28;20021;-89
2022/08/09 04:19:33;;;;;;;;;;;;;;;11.63;100.00;102361.44;5025351;28;20060;-89
2022/08/09 04:21:58;;;;;;;;;;;;;;;11.66;100.00;102368.34;5009013;28;19916;-89
2022/08/09 04:24:26;;;;;;;8.13;4.80;;;;;;;11.65;100.00;102370.19;5008237;28;20297;-89
2022/08/09 04:26:53;;;;;;;6.18;4.22;;;;;;;11.69;100.00;102360.09;5024834;28;20020;-89
2022/08/09 04:29:19;;;;;;;7.50;4.35;;;;;;;11.71;100.00;102361.66;5021820;28;20784;-89
2022/08/09 04:31:44;;;;;;;12.60;5.95;;;;;;;11.74;100.00;102364.03;5026164;28;20021;-88
2022/08/09 04:34:10;;;;;;;7.53;5.00;;;;;;;11.84;100.00;102359.59;5041977;28;20055;-89
2022/08/09 04:36:35;;;;;;;8.00;4.83;;;;;;;11.90;100.00;102373.50;5012959;28;20029;-89
2022/08/09 04:39:04;;;;;;;9.57;6.50;;;;;;;12.02;100.00;102377.78;5020633;28;20111;-88
2022/08/09 04:41:30;;;;;;;8.93;6.13;;;;;;;12.12;100.00;102381.34;5021033;28;20076;-89
2022/08/09 04:43:56;;;;;;;8.15;4.43;;;;;;;12.10;100.00;102380.63;5021246;28;20037;-89
2022/08/09 04:46:22;;;;;;;8.00;5.57;;;;;;;12.20;100.00;102386.06;5023514;28;20025;-89
2022/08/09 04:48:47;;;;;;;6.90;4.45;;;;;;;12.32;100.00;102390.34;5024058;28;20124;-89
2022/08/09 04:51:13;;;;;;;8.53;4.80;;;;;;;12.43;100.00;102384.91;5007309;28;20030;-89
2022/08/09 04:53:38;;;;;;;7.73;4.63;;;;;;;12.65;100.00;102393.72;5024125;28;20036;-89
2022/08/09 04:56:05;;;;;;;11.27;4.88;;;;;;;12.76;100.00;102396.28;5007994;28;20056;-89
2022/08/09 04:58:30;;;;;;;;;;;;;;;13.00;100.00;102393.25;5016800;28;20047;-89
2022/08/09 05:00:55;;;;;;;;;;;;;;;13.10;100.00;102395.94;5001072;28;19913;-88
2022/08/09 05:03:22;;;;;;;11.63;4.53;;;;;;;13.24;100.00;102402.72;5006753;28;19967;-90
2022/08/09 05:05:47;;;;;;;;;;;;;;;13.43;100.00;102396.56;5016484;28;20055;-90
2022/08/09 05:08:13;;;;;;;;;;;;;;;13.51;100.00;102405.59;5017275;28;19913;-90
2022/08/09 05:10:38;;;;;;;7.50;4.57;;;;;;;13.83;100.00;102409.78;5041621;28;20764;-90
2022/08/09 05:13:04;;;;;;;7.18;4.15;;;;;;;14.02;100.00;102410.75;5025067;28;20064;-89
2022/08/09 05:15:29;;;;;;;4.90;3.87;;;;;;;14.41;100.00;102399.91;4999528;28;20064;-89
2022/08/09 05:17:55;;;;;;;5.30;4.43;;;;;;;15.01;100.00;102408.41;5023541;28;20098;-89
2022/08/09 05:20:20;;;;;;;5.10;4.33;;;;;;;16.05;100.00;102405.13;5005598;28;20024;-89
2022/08/09 05:22:47;;;;;;;6.63;4.03;;;;;;;17.19;100.00;102388.63;5024228;28;20037;-89
2022/08/09 05:25:13;;;;;;;5.40;3.88;;;;;;;18.24;100.00;102366.28;5009349;28;20018;-90
2022/08/09 05:27:39;;;;;;;5.70;3.30;;;;;;;19.02;100.00;102322.13;5028453;28;20040;-89
2022/08/09 05:30:04;;;;;;;4.77;3.10;;;;;;;19.45;100.00;102207.88;5010668;28;20020;-90
2022/08/09 05:32:30;;;;;;;5.22;2.85;;;;;;;19.80;100.00;102162.94;5024354;28;20140;-90
2022/08/09 05:34:55;;;;;;;4.23;2.53;;;;;;;20.56;100.00;102097.47;5010844;28;20025;-91
2022/08/09 05:37:21;;;;;;;3.47;2.95;;;;;;;20.76;100.00;102056.91;5024727;28;20037;-90
2022/08/09 05:39:46;;;;;;;13.13;3.20;;;;;;;20.72;100.00;101960.63;5014490;28;20040;-89
2022/08/09 05:42:12;;;;;;;6.20;2.80;;;;;;;21.21;100.00;102025.63;5038705;28;20033;-89
2022/08/09 05:44:39;;;;;;;5.03;2.63;;;;;;;21.41;100.00;101954.28;5027124;28;20057;-90
2022/08/09 05:47:04;;;;;;;6.13;2.40;;;;;;;21.90;100.00;102000.13;5028194;28;20041;-90
2022/08/09 05:49:29;;;;;;;5.30;2.97;;;;;;;22.02;100.00;101890.75;5007808;28;20127;-90
2022/08/09 05:51:55;;;;;;;6.07;3.03;;;;;;;21.53;100.00;101939.03;5030489;28;20032;-90
2022/08/09 05:54:20;;;;;;;3.17;2.30;;;;;;;21.60;100.00;102001.53;5027312;28;20037;-89
2022/08/09 05:56:45;;;;;;;5.60;2.47;;;;;;;22.09;100.00;102000.34;5033950;28;20037;-91
2022/08/09 05:59:11;;;;;;;2.50;1.50;;;;;;;22.08;100.00;102058.53;5024039;28;20114;-91
2022/08/09 06:01:36;;;;;;;5.40;1.80;;;;;;;22.95;100.00;102051.16;5032566;28;20033;-91
2022/08/09 06:04:02;;;;;;;4.63;2.70;;;;;;;22.60;100.00;101953.47;5014509;28;20347;-90
2022/08/09 06:06:28;;;;;;;6.20;2.20;;;;;;;22.66;100.00;102000.75;5028909;28;20036;-91
2022/08/09 06:08:53;;;;;;;5.80;1.98;;;;;;;22.87;100.00;101953.38;5025521;28;20052;-91
2022/08/09 06:11:19;;;;;;;10.50;2.47;;;;;;;22.30;100.00;101947.66;5020341;28;20037;-91
2022/08/09 06:13:44;;;;;;;2.88;1.88;;;;;;;22.33;100.00;102083.25;5015275;28;20017;-93
2022/08/09 06:16:10;;;;;;;6.40;1.90;;;;;;;22.81;100.00;102125.75;5011798;28;20195;-91
2022/08/09 06:18:36;;;;;;;6.90;2.03;;;;;;;22.81;100.00;102093.09;5023292;28;20016;-91
2022/08/09 06:21:02;;;;;;;5.68;1.73;;;;;;;22.92;100.00;102002.56;5027711;28;20329;-90
2022/08/09 06:23:28;;;;;;;;;;;;;;;23.46;100.00;102077.66;5022712;28;20076;-90
2022/08/09 06:25:54;;;;;;;5.07;2.28;;;;;;;22.76;100.00;102039.28;5022664;28;20346;-90
2022/08/09 06:28:19;;;;;;;4.43;1.90;;;;;;;22.62;100.00;102109.22;5009264;28;20034;-89
2022/08/09 06:30:45;;;;;;;8.43;2.10;;;;;;;23.05;99.01;101978.06;5020627;28;20040;-90
2022/08/09 06:33:10;;;;;;;5.22;2.53;;;;;;;23.24;100.00;102111.66;5006493;28;20291;-90
2022/08/09 06:35:36;;;;;;;3.35;2.00;;;;;;;23.88;95.98;102056.28;5028485;28;20040;-90
2022/08/09 06:38:01;;;;;;;2.70;1.97;;;;;;;23.95;93.31;102026.22;5019197;28;20075;-90
2022/08/09 06:40:27;;;;;;;4.15;2.28;;;;;;;23.38;99.07;102081.44;5027282;28;20047;-85
2022/08/09 06:42:52;;;;;;;3.15;2.20;;;;;;;23.31;97.80;102056.09;5032803;28;20021;-88
2022/08/09 06:45:18;;;;;;;4.95;2.80;;;;;;;23.29;100.00;102144.56;5057472;28;20091;-88
2022/08/09 06:47:44;;;;;;;7.65;2.40;;;;;;;22.73;100.00;102099.56;5025720;28;20029;-90
2022/08/09 06:50:09;;;;;;;4.95;2.08;;;;;;;22.61;100.00;102129.31;5038669;28;20052;-91
2022/08/09 06:52:35;;;;;;;3.45;2.38;;;;;;;22.11;100.00;102126.09;5015399;28;20028;-91
2022/08/09 06:55:00;;;;;;;2.60;1.70;;;;;;;23.10;100.00;102269.69;5021163;28;20040;-88
2022/08/09 06:57:26;;;;;;;3.60;2.03;;;;;;;23.64;100.00;102168.78;5025462;28;20267;-89
2022/08/09 06:59:52;;;;;;;5.22;2.13;;;;;;;23.63;99.25;102170.66;5034768;28;20032;-88
2022/08/09 07:02:18;;;;;;;3.22;1.80;;;;;;;23.92;95.41;102136.59;5023152;28;20021;-88
2022/08/09 07:04:44;;;;;;;5.03;1.70;;;;;;;23.34;100.00;102182.91;5021976;28;20115;-87
2022/08/09 07:07:09;;;;;;;6.20;2.88;;;;;;;23.84;97.60;102179.66;5005407;28;20115;-88
2022/08/09 07:09:34;;;;;;;4.65;2.25;;;;;;;23.82;96.26;102146.31;5022172;28;20195;-88
2022/08/09 07:12:00;;;;;;;4.03;2.40;;;;;;;23.58;97.62;102154.13;5005682;28;20017;-86
2022/08/09 07:14:25;;;;;;;4.70;2.15;;;;;;;23.67;98.81;102195.59;5027141;28;20036;-89
2022/08/09 07:16:51;;;;;;;7.67;3.03;;;;;;;23.62;100.00;102266.28;5019273;28;20056;-90
2022/08/09 07:19:16;;;;;;;4.20;2.03;;;;;;;24.12;97.08;102223.78;5031966;28;20083;-90
2022/08/09 07:21:42;;;;;;;7.40;1.90;;;;;;;23.98;99.46;102222.19;5002881;28;20362;-90
2022/08/09 07:24:08;;;;;;;4.22;2.40;;;;;;;24.12;95.04;102168.38;5033026;28;20083;-91
2022/08/09 07:26:33;;;;;;;2.85;1.75;;;;;;;23.84;99.18;102218.66;5035889;28;20031;-90
2022/08/09 07:28:59;;;;;;;8.07;1.50;;;;;;;24.34;95.17;102210.63;5024438;28;20087;-89
2022/08/09 07:31:25;;;;;;;5.50;1.92;;;;;;;24.04;97.09;102215.84;5011618;28;20029;-89
2022/08/09 07:33:50;;;;;;;5.65;2.55;;;;;;;24.05;95.57;102183.97;5045661;28;20020;-89
2022/08/09 07:36:15;;;;;;;7.33;2.10;;;;;;;23.77;96.27;102182.41;4999962;28;20061;-89
2022/08/09 07:38:41;;;;;;;3.53;2.25;;;;;;;23.85;98.63;102236.69;5024815;28;20279;-90
2022/08/09 07:41:07;;;;;;;1.70;1.60;;;;;;;24.16;99.37;102282.31;5007382;28;20037;-89
2022/08/09 07:43:32;;;;;;;3.28;1.45;;;;;;;24.65;91.31;102206.28;5020965;28;20635;-89
2022/08/09 07:45:57;;;;;;;4.53;1.95;;;;;;;23.71;90.98;102052.34;5021100;28;20504;-87
2022/08/09 07:48:23;;;;;;;4.90;2.00;;;;;;;23.92;94.82;102185.69;5028957;28;20025;-90
2022/08/09 07:50:49;;;;;;;2.85;1.75;;;;;;;23.72;96.31;102184.91;5021249;28;20460;-89
2022/08/09 07:53:14;;;;;;;3.00;1.90;;;;;;;23.62;99.54;102241.75;5022495;28;20030;-90
2022/08/09 07:55:39;;;;;;;2.60;1.70;;;;;;;23.49;100.00;102251.63;5024816;28;20048;-89
2022/08/09 07:58:05;;;;;;;3.35;1.98;;;;;;;24.01;98.67;102266.22;5024990;28;20059;-90
2022/08/09 08:00:31;;;;;;;4.75;1.98;;;;;;;24.23;91.58;102165.81;5004549;28;20444;-91
2022/08/09 08:02:58;;;;;;;2.30;1.60;;;;;;;24.18;94.90;102243.91;5021322;28;20413;-90
2022/08/09 08:05:24;;;;;;;4.47;1.75;;;;;;;24.25;88.29;102134.72;5007509;28;20036;-91
2022/08/09 08:07:50;;;;;;;3.20;1.65;;;;;;;24.59;85.32;102119.81;5026759;28;20036;-90
2022/08/09 08:10:16;;;;;;;6.80;1.85;;;;;;;24.54;84.15;102098.63;5006362;28;20031;-90
2022/08/09 08:12:43;;;;;;;4.35;1.63;;;;;;;24.73;82.34;102098.69;5016350;28;20025;-90
2022/08/09 08:15:08;;;;;;;;;;;;;;;24.59;83.93;102115.19;5007869;28;20021;-91
2022/08/09 08:17:34;;;;;;;3.55;1.50;;;;;;;24.81;79.75;102057.41;5020785;28;20373;-89
2022/08/09 08:20:00;;;;;;;;;;;;;;;24.58;81.28;102080.75;5004689;28;20021;-90
2022/08/09 08:22:25;;;;;;;3.22;1.60;;;;;;;24.83;78.71;102061.59;5007569;28;19912;-91
2022/08/09 08:24:54;;;;;;;7.27;1.80;;;;;;;24.93;78.00;102065.69;5008184;28;20024;-90
2022/08/09 08:27:24;;;;;;;5.07;1.67;;;;;;;25.47;71.45;101951.94;5022284;28;20294;-89
2022/08/09 08:29:50;;;;;;;2.95;1.50;;;;;;;25.65;72.36;102028.44;5010627;28;20021;-89
2022/08/09 08:32:16;;;;;;;1.92;1.65;;;;;;;25.91;69.11;101949.81;5021451;28;20040;-89
2022/08/09 08:34:42;;;;;;;10.23;2.72;;;;;;;26.15;68.79;101997.19;5025745;28;20024;-91
2022/08/09 08:37:07;;;;;;;5.63;1.90;;;;;;;26.11;66.77;101894.75;5023161;28;20044;-89
2022/08/09 08:39:32;;;;;;;3.07;1.70;;;;;;;25.74;69.15;101949.66;5007770;28;20275;-88
2022/08/09 08:41:58;;;;;;;4.28;1.77;;;;;;;26.13;66.96;101954.72;5024022;28;20030;-89
2022/08/09 08:44:26;;;;;;;4.40;1.45;;;;;;;26.62;63.70;101893.16;5004058;28;20029;-86
2022/08/09 08:46:53;;;;;;;3.85;2.03;;;;;;;26.19;63.92;101836.09;5020334;28;20095;-89
2022/08/09 08:49:25;;;;;;;;;;;;;;;25.39;64.00;101679.78;5006108;28;20857;-87
2022/08/09 08:51:52;;;;;;;4.45;1.60;;;;;;;25.79;66.84;101910.66;5043043;28;19924;-88
2022/08/09 08:54:17;;;;;;;;;;;;;;;26.25;64.71;101933.66;5005984;28;20025;-89
2022/08/09 08:56:45;;;;;;;4.45;1.95;;;;;;;26.26;61.55;101765.63;5002503;28;19920;-90
2022/08/09 08:59:12;;;;;;;2.42;1.38;;;;;;;26.64;61.66;101873.72;5003737;28;20035;-90
2022/08/09 09:01:42;;;;;;;5.82;1.92;;;;;;;26.08;61.65;101767.47;5020254;28;20498;-89
2022/08/09 09:04:09;;;;;;;2.33;1.40;;;;;;;26.37;61.37;101833.19;5003719;28;20115;-91
2022/08/09 09:06:37;;;;;;;3.22;1.42;;;;;;;26.83;61.03;101919.06;5020383;28;20061;-91
2022/08/09 09:09:04;;;;;;;4.82;1.98;;;;;;;26.92;60.79;101909.34;5008698;28;20600;-91
2022/08/09 09:11:31;;;;;;;7.57;2.10;;;;;;;27.03;59.61;101865.72;5011999;28;20041;-90
2022/08/09 09:13:59;;;;;;;3.60;1.55;;;;;;;27.28;57.70;101803.16;5020756;28;20254;-90
2022/08/09 09:16:29;;;;;;;3.30;1.60;;;;;;;27.41;58.10;101828.59;5023152;28;20040;-89
2022/08/09 09:18:55;;;;;;;3.60;1.48;;;;;;;26.97;57.75;101730.53;5023771;28;20025;-89
2022/08/09 09:21:21;;;;;;;5.47;1.80;;;;;;;26.83;58.57;101784.84;5014085;28;20764;-90
2022/08/09 09:23:47;;;;;;;4.45;1.90;;;;;;;26.53;57.98;101700.16;5023424;28;20099;-91
2022/08/09 09:26:14;;;;;;;3.88;2.03;;;;;;;26.54;58.24;101734.72;5006070;28;20477;-89
2022/08/09 09:28:47;;;;;;;3.28;1.58;;;;;;;26.79;57.87;101811.06;5019896;28;20049;-89
2022/08/09 09:31:17;;;;;;;8.13;1.75;;;;;;;27.02;56.86;101790.06;5020524;28;20042;-89
2022/08/09 09:33:43;;;;;;;6.72;2.13;;;;;;;27.04;56.29;101752.28;5006731;28;20029;-90
2022/08/09 09:36:11;;;;;;;1.88;1.33;;;;;;;27.60;54.21;101744.97;5022964;28;20018;-89
2022/08/09 09:38:45;;;;;;;3.25;1.33;;;;;;;27.29;54.44;101688.84;5022963;28;20097;-90
2022/08/09 09:41:26;;;;;;;3.30;1.30;;;;;;;26.92;55.04;101657.28;5021111;28;20090;-90
2022/08/09 09:43:53;;;;;;;3.28;1.83;;;;;;;26.36;56.45;101670.00;5017928;28;20117;-89
2022/08/09 09:46:19;;;;;;;3.00;1.35;;;;;;;27.12;55.70;101762.84;5004390;28;20028;-89
2022/08/09 09:49:05;;;;;;;2.63;1.80;;;;;;;27.10;54.10;101636.19;5019935;28;20578;-89
2022/08/09 09:51:32;;;;;;;2.45;1.20;;;;;;;27.71;53.15;101738.53;5003243;28;20071;-89
2022/08/09 09:54:12;;;;;;;2.92;1.20;;;;;;;28.30;52.85;101794.75;5003657;28;20032;-89
2022/08/09 09:56:40;;;;;;;5.65;1.58;;;;;;;28.47;51.88;101735.13;5008868;28;20041;-90
2022/08/09 09:59:07;;;;;;;2.00;1.10;;;;;;;28.07;52.07;101672.31;5022771;28;20036;-89
2022/08/09 10:01:32;;;;;;;1.40;1.30;;;;;;;27.44;51.70;101526.47;5031111;28;20045;-88
2022/08/09 10:03:58;;;;;;;4.30;1.38;;;;;;;27.32;53.34;101685.59;5014758;28;20241;-90
2022/08/09 10:06:40;;;;;;;3.00;1.60;;;;;;;26.78;53.84;101606.66;5020103;28;20494;-90
2022/08/09 10:09:07;;;;;;;3.55;1.33;;;;;;;27.08;55.28;101747.97;5006346;28;20040;-89
2022/08/09 10:11:33;;;;;;;4.22;1.45;;;;;;;27.50;53.65;101711.91;5009882;28;20017;-89
2022/08/09 10:13:59;;;;;;;;;;;;;;;27.89;52.93;101747.59;5035069;28;20033;-89
2022/08/09 10:16:32;;;;;;;2.53;2.33;;;;;;;27.98;53.28;101773.50;5049380;28;19916;-89
2022/08/09 10:19:00;;;;;;;2.60;1.10;;;;;;;27.78;52.48;101689.78;5031037;28;20485;-89
2022/08/09 10:21:26;;;;;;;3.90;1.63;;;;;;;27.71;51.02;101549.25;5031043;28;20049;-90
2022/08/09 10:23:56;;;;;;;;;;;;;;;28.33;51.87;101764.03;5031032;28;20029;-90
2022/08/09 10:26:22;;;;;;;2.28;1.73;;;;;;;27.94;50.60;101530.88;5025335;28;20400;-90
2022/08/09 10:28:48;;;;;;;3.65;1.83;;;;;;;26.37;53.14;101457.34;5026093;28;20029;-89
2022/08/09 10:31:15;;;;;;;4.20;1.30;;;;;;;25.94;54.96;101510.81;5025910;28;20028;-89
2022/08/09 10:33:40;;;;;;;6.18;1.27;;;;;;;25.39;59.52;101714.47;5034318;28;20112;-89
2022/08/09 10:36:08;;;;;;;4.57;1.52;;;;;;;24.96;59.46;101611.78;5026906;28;20028;-93
2022/08/09 10:38:35;;;;;;;5.90;1.83;;;;;;;24.26;62.24;101646.09;5012007;28;20793;-88
2022/08/09 10:41:01;;;;;;;10.07;1.58;;;;;;;24.19;62.93;101681.63;5025417;28;20516;-85
2022/08/09 10:43:27;;;;;;;2.03;1.13;;;;;;;24.22;64.98;101797.66;5022858;28;20034;-85
2022/08/09 10:45:52;;;;;;;3.10;1.80;;;;;;;24.18;67.98;101900.13;5014303;28;20032;-85
2022/08/09 10:51:38;;;;;;;4.88;1.60;;;;;;;24.46;63.35;101748.66;5025879;28;20049;-76
2022/08/09 10:54:06;;;;;;;3.55;1.50;;;;;;;24.96;63.68;101887.69;4995285;28;20045;-75
2022/08/09 10:56:37;;;;;;;2.40;1.30;;;;;;;25.36;62.44;101878.97;5016273;28;20018;-76
2022/08/09 10:59:32;;;;;;;2.72;1.58;;;;;;;26.07;60.43;101921.75;4992695;28;20030;-77
2022/08/09 11:01:58;;;;;;;3.38;1.65;;;;;;;26.40;58.31;101854.59;4997947;28;20037;-77
2022/08/09 11:04:26;;;;;;;3.00;1.27;;;;;;;27.08;56.44;101858.41;5000777;28;20034;-77
2022/08/09 11:06:57;;;;;;;3.90;1.27;;;;;;;27.68;52.83;101724.50;4992690;28;20091;-76
2022/08/09 11:09:38;;;;;;;3.55;1.40;;;;;;;27.25;53.17;101639.19;5009942;28;20047;-76
2022/08/09 11:12:28;;;;;;;2.67;1.38;;;;;;;27.91;52.87;101778.34;5010346;28;20087;-76
2022/08/09 11:15:18;;;;;;;3.83;1.13;;;;;;;28.45;51.86;101805.94;4992084;28;20061;-77
2022/08/09 11:17:45;;;;;;;4.32;1.30;;;;;;;27.78;52.91;101722.72;4989169;28;20447;-77
2022/08/09 11:20:11;;;;;;;4.93;1.30;;;;;;;28.33;51.38;101747.56;4998546;28;20471;-76
2022/08/09 11:22:43;;;;;;;3.70;1.20;;;;;;;27.49;51.20;101545.75;5009200;28;20522;-76
2022/08/09 11:25:34;;;;;;;6.05;1.40;;;;;;;27.64;51.53;101608.97;5004687;28;20041;-76
2022/08/09 11:28:00;;;;;;;2.38;1.40;;;;;;;27.56;51.15;101576.53;4991698;28;20082;-76
2022/08/09 11:30:25;;;;;;;5.50;1.33;;;;;;;27.83;51.38;101660.78;4991570;28;20161;-75
2022/08/09 11:33:28;;;;;;;1.45;1.08;;;;;;;28.71;49.48;101727.41;5001828;28;20034;-76